sensor_id;sensor_type;location;lat;lon;timestamp;temperature;humidity
5334;DHT22;2689;50.954;7.116;2024-03-29T00:01:21;9.20;87.90
5334;DHT22;2689;50.954;7.116;2024-03-29T00:03:48;9.20;87.90
5334;DHT22;2689;50.954;7.116;2024-03-29T00:06:14;9.20;87.90
5334;DHT22;2689;50.954;7.116;2024-03-29T00:08:40;9.10;87.80
5334;DHT22;2689;50.954;7.116;2024-03-29T00:11:06;9.10;87.80
5334;DHT22;2689;50.954;7.116;2024-03-29T00:13:32;9.00;88.10
5334;DHT22;2689;50.954;7.116;2024-03-29T00:15:58;9.00;88.40
5334;DHT22;2689;50.954;7.116;2024-03-29T00:18:24;9.00;88.60
5334;DHT22;2689;50.954;7.116;2024-03-29T00:20:52;8.90;89.00
5334;DHT22;2689;50.954;7.116;2024-03-29T00:23:18;8.90;89.10
5334;DHT22;2689;50.954;7.116;2024-03-29T00:25:44;8.90;89.40
5334;DHT22;2689;50.954;7.116;2024-03-29T00:28:10;8.90;89.60
5334;DHT22;2689;50.954;7.116;2024-03-29T00:30:36;8.80;89.70
5334;DHT22;2689;50.954;7.116;2024-03-29T00:33:02;8.80;89.70
5334;DHT22;2689;50.954;7.116;2024-03-29T00:35:28;8.80;90.20
5334;DHT22;2689;50.954;7.116;2024-03-29T00:37:55;8.80;89.60
5334;DHT22;2689;50.954;7.116;2024-03-29T00:40:21;8.80;89.60
5334;DHT22;2689;50.954;7.116;2024-03-29T00:42:47;8.80;89.40
5334;DHT22;2689;50.954;7.116;2024-03-29T00:45:13;8.90;89.30
5334;DHT22;2689;50.954;7.116;2024-03-29T00:47:39;8.90;89.30
5334;DHT22;2689;50.954;7.116;2024-03-29T00:50:05;9.00;89.20
5334;DHT22;2689;50.954;7.116;2024-03-29T00:52:32;9.00;89.30
5334;DHT22;2689;50.954;7.116;2024-03-29T00:54:59;9.10;89.40
5334;DHT22;2689;50.954;7.116;2024-03-29T00:57:25;9.00;88.60
5334;DHT22;2689;50.954;7.116;2024-03-29T00:59:51;9.10;88.70
5334;DHT22;2689;50.954;7.116;2024-03-29T01:02:17;9.10;88.30
5334;DHT22;2689;50.954;7.116;2024-03-29T01:04:43;9.10;88.20
5334;DHT22;2689;50.954;7.116;2024-03-29T01:07:09;9.20;87.80
5334;DHT22;2689;50.954;7.116;2024-03-29T01:09:35;9.20;87.30
5334;DHT22;2689;50.954;7.116;2024-03-29T01:12:05;9.30;87.30
5334;DHT22;2689;50.954;7.116;2024-03-29T01:14:31;9.30;87.00
5334;DHT22;2689;50.954;7.116;2024-03-29T01:16:57;9.40;86.90
5334;DHT22;2689;50.954;7.116;2024-03-29T01:19:23;9.40;86.50
5334;DHT22;2689;50.954;7.116;2024-03-29T01:21:49;9.40;86.50
5334;DHT22;2689;50.954;7.116;2024-03-29T01:24:15;9.50;86.30
5334;DHT22;2689;50.954;7.116;2024-03-29T01:26:41;9.50;86.20
5334;DHT22;2689;50.954;7.116;2024-03-29T01:29:08;9.50;86.20
5334;DHT22;2689;50.954;7.116;2024-03-29T01:31:34;9.50;86.00
5334;DHT22;2689;50.954;7.116;2024-03-29T01:34:00;9.60;85.90
5334;DHT22;2689;50.954;7.116;2024-03-29T01:36:26;9.60;85.90
5334;DHT22;2689;50.954;7.116;2024-03-29T01:38:52;9.60;85.90
5334;DHT22;2689;50.954;7.116;2024-03-29T01:41:18;9.70;85.80
5334;DHT22;2689;50.954;7.116;2024-03-29T01:43:44;9.60;85.70
5334;DHT22;2689;50.954;7.116;2024-03-29T01:46:12;9.70;85.90
5334;DHT22;2689;50.954;7.116;2024-03-29T01:48:39;9.70;85.90
5334;DHT22;2689;50.954;7.116;2024-03-29T01:51:12;9.80;85.70
5334;DHT22;2689;50.954;7.116;2024-03-29T01:53:40;9.80;85.50
5334;DHT22;2689;50.954;7.116;2024-03-29T01:56:07;9.70;85.30
5334;DHT22;2689;50.954;7.116;2024-03-29T01:58:35;9.70;85.50
5334;DHT22;2689;50.954;7.116;2024-03-29T02:01:03;9.70;85.60
5334;DHT22;2689;50.954;7.116;2024-03-29T02:03:32;9.80;85.50
5334;DHT22;2689;50.954;7.116;2024-03-29T02:05:59;9.80;85.60
5334;DHT22;2689;50.954;7.116;2024-03-29T02:08:28;9.80;85.50
5334;DHT22;2689;50.954;7.116;2024-03-29T02:10:55;9.80;85.30
5334;DHT22;2689;50.954;7.116;2024-03-29T02:13:24;9.80;85.20
5334;DHT22;2689;50.954;7.116;2024-03-29T02:15:51;9.70;85.30
5334;DHT22;2689;50.954;7.116;2024-03-29T02:18:18;9.80;85.20
5334;DHT22;2689;50.954;7.116;2024-03-29T02:20:47;9.80;85.20
5334;DHT22;2689;50.954;7.116;2024-03-29T02:23:16;9.80;85.10
5334;DHT22;2689;50.954;7.116;2024-03-29T02:25:46;9.80;85.20
5334;DHT22;2689;50.954;7.116;2024-03-29T02:28:13;9.90;85.60
5334;DHT22;2689;50.954;7.116;2024-03-29T02:30:40;10.00;84.80
5334;DHT22;2689;50.954;7.116;2024-03-29T02:33:07;9.90;86.30
5334;DHT22;2689;50.954;7.116;2024-03-29T02:35:34;9.90;86.90
5334;DHT22;2689;50.954;7.116;2024-03-29T02:38:00;9.90;87.20
5334;DHT22;2689;50.954;7.116;2024-03-29T02:40:27;9.90;87.20
5334;DHT22;2689;50.954;7.116;2024-03-29T02:42:57;9.90;87.10
5334;DHT22;2689;50.954;7.116;2024-03-29T02:45:24;9.90;87.20
5334;DHT22;2689;50.954;7.116;2024-03-29T02:47:51;9.80;86.60
5334;DHT22;2689;50.954;7.116;2024-03-29T02:50:17;9.80;86.40
5334;DHT22;2689;50.954;7.116;2024-03-29T02:52:44;9.80;86.50
5334;DHT22;2689;50.954;7.116;2024-03-29T02:55:10;9.80;86.60
5334;DHT22;2689;50.954;7.116;2024-03-29T02:57:37;9.90;86.60
5334;DHT22;2689;50.954;7.116;2024-03-29T03:00:06;9.80;86.10
5334;DHT22;2689;50.954;7.116;2024-03-29T03:02:37;9.80;86.10
5334;DHT22;2689;50.954;7.116;2024-03-29T03:05:03;9.80;86.00
5334;DHT22;2689;50.954;7.116;2024-03-29T03:07:30;9.80;86.20
5334;DHT22;2689;50.954;7.116;2024-03-29T03:10:15;9.90;86.30
5334;DHT22;2689;50.954;7.116;2024-03-29T03:12:59;9.90;86.20
5334;DHT22;2689;50.954;7.116;2024-03-29T03:15:27;9.90;85.80
5334;DHT22;2689;50.954;7.116;2024-03-29T03:17:54;9.80;85.70
5334;DHT22;2689;50.954;7.116;2024-03-29T03:20:22;9.80;85.90
5334;DHT22;2689;50.954;7.116;2024-03-29T03:22:48;9.90;85.80
5334;DHT22;2689;50.954;7.116;2024-03-29T03:25:17;9.90;85.60
5334;DHT22;2689;50.954;7.116;2024-03-29T03:27:43;9.90;85.90
5334;DHT22;2689;50.954;7.116;2024-03-29T03:30:11;9.90;85.70
5334;DHT22;2689;50.954;7.116;2024-03-29T03:32:38;9.80;85.60
5334;DHT22;2689;50.954;7.116;2024-03-29T03:35:06;9.80;85.50
5334;DHT22;2689;50.954;7.116;2024-03-29T03:37:32;9.80;85.40
5334;DHT22;2689;50.954;7.116;2024-03-29T03:39:58;9.80;85.40
5334;DHT22;2689;50.954;7.116;2024-03-29T03:42:24;9.80;85.50
5334;DHT22;2689;50.954;7.116;2024-03-29T03:44:51;9.80;85.30
5334;DHT22;2689;50.954;7.116;2024-03-29T03:47:17;9.80;85.20
5334;DHT22;2689;50.954;7.116;2024-03-29T03:49:45;9.80;85.30
5334;DHT22;2689;50.954;7.116;2024-03-29T03:52:11;9.80;85.20
5334;DHT22;2689;50.954;7.116;2024-03-29T03:54:38;9.90;85.60
5334;DHT22;2689;50.954;7.116;2024-03-29T03:57:04;9.80;85.10
5334;DHT22;2689;50.954;7.116;2024-03-29T03:59:32;9.80;85.00
5334;DHT22;2689;50.954;7.116;2024-03-29T04:01:58;9.80;85.20
5334;DHT22;2689;50.954;7.116;2024-03-29T04:04:24;9.90;85.50
5334;DHT22;2689;50.954;7.116;2024-03-29T04:06:52;9.80;85.20
5334;DHT22;2689;50.954;7.116;2024-03-29T04:09:19;9.80;85.40
5334;DHT22;2689;50.954;7.116;2024-03-29T04:11:44;9.90;85.60
5334;DHT22;2689;50.954;7.116;2024-03-29T04:14:11;9.80;85.40
5334;DHT22;2689;50.954;7.116;2024-03-29T04:16:37;9.90;85.50
5334;DHT22;2689;50.954;7.116;2024-03-29T04:19:04;9.90;85.60
5334;DHT22;2689;50.954;7.116;2024-03-29T04:21:30;9.90;85.90
5334;DHT22;2689;50.954;7.116;2024-03-29T04:23:58;9.90;85.70
5334;DHT22;2689;50.954;7.116;2024-03-29T04:26:24;9.90;85.80
5334;DHT22;2689;50.954;7.116;2024-03-29T04:28:51;9.90;85.90
5334;DHT22;2689;50.954;7.116;2024-03-29T04:31:17;9.90;86.80
5334;DHT22;2689;50.954;7.116;2024-03-29T04:33:44;10.00;86.30
5334;DHT22;2689;50.954;7.116;2024-03-29T04:36:09;10.00;86.70
5334;DHT22;2689;50.954;7.116;2024-03-29T04:38:36;10.00;87.30
5334;DHT22;2689;50.954;7.116;2024-03-29T04:41:05;9.90;88.70
5334;DHT22;2689;50.954;7.116;2024-03-29T04:43:32;9.90;89.00
5334;DHT22;2689;50.954;7.116;2024-03-29T04:46:02;9.80;89.60
5334;DHT22;2689;50.954;7.116;2024-03-29T04:48:31;9.80;90.00
5334;DHT22;2689;50.954;7.116;2024-03-29T04:50:58;9.70;89.70
5334;DHT22;2689;50.954;7.116;2024-03-29T04:53:24;9.70;90.30
5334;DHT22;2689;50.954;7.116;2024-03-29T04:55:55;9.70;90.50
5334;DHT22;2689;50.954;7.116;2024-03-29T04:58:24;9.70;90.80
5334;DHT22;2689;50.954;7.116;2024-03-29T05:00:51;9.70;90.90
5334;DHT22;2689;50.954;7.116;2024-03-29T05:03:19;9.60;91.20
5334;DHT22;2689;50.954;7.116;2024-03-29T05:05:46;9.60;91.70
5334;DHT22;2689;50.954;7.116;2024-03-29T05:08:13;9.60;91.50
5334;DHT22;2689;50.954;7.116;2024-03-29T05:10:40;9.60;92.20
5334;DHT22;2689;50.954;7.116;2024-03-29T05:13:07;9.60;92.30
5334;DHT22;2689;50.954;7.116;2024-03-29T05:15:35;9.60;92.00
5334;DHT22;2689;50.954;7.116;2024-03-29T05:18:03;9.50;91.90
5334;DHT22;2689;50.954;7.116;2024-03-29T05:20:30;9.50;92.10
5334;DHT22;2689;50.954;7.116;2024-03-29T05:22:58;9.50;91.80
5334;DHT22;2689;50.954;7.116;2024-03-29T05:25:24;9.50;91.90
5334;DHT22;2689;50.954;7.116;2024-03-29T05:27:51;9.60;92.00
5334;DHT22;2689;50.954;7.116;2024-03-29T05:30:19;9.60;92.30
5334;DHT22;2689;50.954;7.116;2024-03-29T05:32:47;9.60;92.30
5334;DHT22;2689;50.954;7.116;2024-03-29T05:35:14;9.60;92.40
5334;DHT22;2689;50.954;7.116;2024-03-29T05:37:41;9.60;92.50
5334;DHT22;2689;50.954;7.116;2024-03-29T05:40:08;9.60;92.50
5334;DHT22;2689;50.954;7.116;2024-03-29T05:42:36;9.60;92.30
5334;DHT22;2689;50.954;7.116;2024-03-29T05:45:04;9.70;92.60
5334;DHT22;2689;50.954;7.116;2024-03-29T05:47:33;9.70;92.70
5334;DHT22;2689;50.954;7.116;2024-03-29T05:50:03;9.80;93.10
5334;DHT22;2689;50.954;7.116;2024-03-29T05:52:29;9.70;93.30
5334;DHT22;2689;50.954;7.116;2024-03-29T05:54:56;9.70;93.80
5334;DHT22;2689;50.954;7.116;2024-03-29T05:57:28;9.70;94.80
5334;DHT22;2689;50.954;7.116;2024-03-29T05:59:56;9.70;95.80
5334;DHT22;2689;50.954;7.116;2024-03-29T06:02:24;9.70;96.10
5334;DHT22;2689;50.954;7.116;2024-03-29T06:04:51;9.70;96.70
5334;DHT22;2689;50.954;7.116;2024-03-29T06:07:19;9.60;97.50
5334;DHT22;2689;50.954;7.116;2024-03-29T06:09:47;9.60;98.30
5334;DHT22;2689;50.954;7.116;2024-03-29T06:12:13;9.70;99.20
5334;DHT22;2689;50.954;7.116;2024-03-29T06:14:40;9.70;99.40
5334;DHT22;2689;50.954;7.116;2024-03-29T06:17:24;9.60;99.90
5334;DHT22;2689;50.954;7.116;2024-03-29T06:19:52;9.60;99.90
5334;DHT22;2689;50.954;7.116;2024-03-29T06:22:24;9.60;99.90
5334;DHT22;2689;50.954;7.116;2024-03-29T06:24:55;9.60;99.90
5334;DHT22;2689;50.954;7.116;2024-03-29T06:27:25;9.70;99.90
5334;DHT22;2689;50.954;7.116;2024-03-29T06:29:51;9.70;99.90
5334;DHT22;2689;50.954;7.116;2024-03-29T06:32:18;9.70;99.90
5334;DHT22;2689;50.954;7.116;2024-03-29T06:34:46;9.80;99.90
5334;DHT22;2689;50.954;7.116;2024-03-29T06:37:14;9.90;99.90
5334;DHT22;2689;50.954;7.116;2024-03-29T06:39:43;9.90;99.90
5334;DHT22;2689;50.954;7.116;2024-03-29T06:42:10;9.90;99.90
5334;DHT22;2689;50.954;7.116;2024-03-29T06:44:37;10.00;99.90
5334;DHT22;2689;50.954;7.116;2024-03-29T06:47:04;10.10;99.90
5334;DHT22;2689;50.954;7.116;2024-03-29T06:49:31;10.10;99.90
5334;DHT22;2689;50.954;7.116;2024-03-29T06:51:59;10.10;99.90
5334;DHT22;2689;50.954;7.116;2024-03-29T06:54:26;10.20;99.90
5334;DHT22;2689;50.954;7.116;2024-03-29T06:56:55;10.20;99.90
5334;DHT22;2689;50.954;7.116;2024-03-29T06:59:22;10.20;99.90
5334;DHT22;2689;50.954;7.116;2024-03-29T07:01:50;10.30;99.90
5334;DHT22;2689;50.954;7.116;2024-03-29T07:04:19;10.30;99.90
5334;DHT22;2689;50.954;7.116;2024-03-29T07:06:46;10.30;99.90
5334;DHT22;2689;50.954;7.116;2024-03-29T07:09:16;10.40;99.90
5334;DHT22;2689;50.954;7.116;2024-03-29T07:11:45;10.50;99.90
5334;DHT22;2689;50.954;7.116;2024-03-29T07:14:13;10.50;99.90
5334;DHT22;2689;50.954;7.116;2024-03-29T07:16:40;10.60;99.90
5334;DHT22;2689;50.954;7.116;2024-03-29T07:19:07;10.60;99.90
5334;DHT22;2689;50.954;7.116;2024-03-29T07:21:34;10.60;99.90
5334;DHT22;2689;50.954;7.116;2024-03-29T07:24:01;10.70;99.90
5334;DHT22;2689;50.954;7.116;2024-03-29T07:26:28;10.80;99.90
5334;DHT22;2689;50.954;7.116;2024-03-29T07:28:55;10.80;99.90
5334;DHT22;2689;50.954;7.116;2024-03-29T07:31:23;10.80;99.90
5334;DHT22;2689;50.954;7.116;2024-03-29T07:33:50;10.90;99.90
5334;DHT22;2689;50.954;7.116;2024-03-29T07:36:17;11.00;99.90
5334;DHT22;2689;50.954;7.116;2024-03-29T07:38:44;11.10;99.90
5334;DHT22;2689;50.954;7.116;2024-03-29T07:41:11;11.20;99.90
5334;DHT22;2689;50.954;7.116;2024-03-29T07:43:39;11.10;99.90
5334;DHT22;2689;50.954;7.116;2024-03-29T07:46:06;11.20;99.90
5334;DHT22;2689;50.954;7.116;2024-03-29T07:48:36;11.20;99.90
5334;DHT22;2689;50.954;7.116;2024-03-29T07:51:02;11.20;99.90
5334;DHT22;2689;50.954;7.116;2024-03-29T07:53:29;11.30;99.90
5334;DHT22;2689;50.954;7.116;2024-03-29T07:55:56;11.40;99.90
5334;DHT22;2689;50.954;7.116;2024-03-29T07:58:23;11.40;99.90
5334;DHT22;2689;50.954;7.116;2024-03-29T08:00:52;11.50;99.90
5334;DHT22;2689;50.954;7.116;2024-03-29T08:03:19;11.40;99.90
5334;DHT22;2689;50.954;7.116;2024-03-29T08:05:56;11.40;99.90
5334;DHT22;2689;50.954;7.116;2024-03-29T08:08:23;11.50;99.90
5334;DHT22;2689;50.954;7.116;2024-03-29T08:10:52;11.50;99.90
5334;DHT22;2689;50.954;7.116;2024-03-29T08:13:20;11.50;99.90
5334;DHT22;2689;50.954;7.116;2024-03-29T08:15:48;11.60;99.90
5334;DHT22;2689;50.954;7.116;2024-03-29T08:18:15;11.60;99.90
5334;DHT22;2689;50.954;7.116;2024-03-29T08:20:42;11.60;99.90
5334;DHT22;2689;50.954;7.116;2024-03-29T08:23:10;11.70;99.90
5334;DHT22;2689;50.954;7.116;2024-03-29T08:25:38;11.80;99.90
5334;DHT22;2689;50.954;7.116;2024-03-29T08:28:05;11.90;99.90
5334;DHT22;2689;50.954;7.116;2024-03-29T08:30:32;12.10;99.90
5334;DHT22;2689;50.954;7.116;2024-03-29T08:33:02;12.30;99.90
5334;DHT22;2689;50.954;7.116;2024-03-29T08:35:29;12.50;99.90
5334;DHT22;2689;50.954;7.116;2024-03-29T08:37:56;12.90;99.90
5334;DHT22;2689;50.954;7.116;2024-03-29T08:40:26;13.10;99.00
5334;DHT22;2689;50.954;7.116;2024-03-29T08:42:54;13.00;98.40
5334;DHT22;2689;50.954;7.116;2024-03-29T08:45:21;12.90;98.70
5334;DHT22;2689;50.954;7.116;2024-03-29T08:47:49;12.90;98.90
5334;DHT22;2689;50.954;7.116;2024-03-29T08:50:16;12.90;98.80
5334;DHT22;2689;50.954;7.116;2024-03-29T08:52:43;12.80;98.60
5334;DHT22;2689;50.954;7.116;2024-03-29T08:55:21;12.80;99.10
5334;DHT22;2689;50.954;7.116;2024-03-29T08:57:49;12.70;99.30
5334;DHT22;2689;50.954;7.116;2024-03-29T09:00:16;12.80;99.40
5334;DHT22;2689;50.954;7.116;2024-03-29T09:02:45;12.80;99.20
5334;DHT22;2689;50.954;7.116;2024-03-29T09:05:12;12.80;99.20
5334;DHT22;2689;50.954;7.116;2024-03-29T09:07:39;12.90;99.30
5334;DHT22;2689;50.954;7.116;2024-03-29T09:10:08;12.90;99.10
5334;DHT22;2689;50.954;7.116;2024-03-29T09:12:35;13.00;99.10
5334;DHT22;2689;50.954;7.116;2024-03-29T09:15:06;13.10;98.70
5334;DHT22;2689;50.954;7.116;2024-03-29T09:17:39;13.20;98.90
5334;DHT22;2689;50.954;7.116;2024-03-29T09:20:06;13.30;98.80
5334;DHT22;2689;50.954;7.116;2024-03-29T09:22:34;13.30;98.00
5334;DHT22;2689;50.954;7.116;2024-03-29T09:25:09;13.30;98.00
5334;DHT22;2689;50.954;7.116;2024-03-29T09:27:39;13.30;98.40
5334;DHT22;2689;50.954;7.116;2024-03-29T09:30:11;13.40;98.30
5334;DHT22;2689;50.954;7.116;2024-03-29T09:32:38;13.50;98.10
5334;DHT22;2689;50.954;7.116;2024-03-29T09:35:05;13.50;97.70
5334;DHT22;2689;50.954;7.116;2024-03-29T09:37:32;13.60;98.00
5334;DHT22;2689;50.954;7.116;2024-03-29T09:40:02;13.70;97.70
5334;DHT22;2689;50.954;7.116;2024-03-29T09:42:32;13.70;97.40
5334;DHT22;2689;50.954;7.116;2024-03-29T09:44:59;13.70;97.10
5334;DHT22;2689;50.954;7.116;2024-03-29T09:47:31;13.80;97.20
5334;DHT22;2689;50.954;7.116;2024-03-29T09:49:59;13.90;97.30
5334;DHT22;2689;50.954;7.116;2024-03-29T09:52:28;14.00;97.10
5334;DHT22;2689;50.954;7.116;2024-03-29T09:54:56;13.90;96.70
5334;DHT22;2689;50.954;7.116;2024-03-29T09:57:24;14.00;96.90
5334;DHT22;2689;50.954;7.116;2024-03-29T09:59:55;14.10;97.10
5334;DHT22;2689;50.954;7.116;2024-03-29T10:02:22;14.20;96.10
5334;DHT22;2689;50.954;7.116;2024-03-29T10:04:55;14.20;96.20
5334;DHT22;2689;50.954;7.116;2024-03-29T10:07:23;14.40;96.30
5334;DHT22;2689;50.954;7.116;2024-03-29T10:09:50;14.40;95.60
5334;DHT22;2689;50.954;7.116;2024-03-29T10:12:18;14.40;95.30
5334;DHT22;2689;50.954;7.116;2024-03-29T10:14:45;14.40;95.60
5334;DHT22;2689;50.954;7.116;2024-03-29T10:17:18;14.40;95.50
5334;DHT22;2689;50.954;7.116;2024-03-29T10:19:45;14.50;95.60
5334;DHT22;2689;50.954;7.116;2024-03-29T10:22:15;14.50;95.40
5334;DHT22;2689;50.954;7.116;2024-03-29T10:24:42;14.60;95.40
5334;DHT22;2689;50.954;7.116;2024-03-29T10:27:09;14.60;95.40
5334;DHT22;2689;50.954;7.116;2024-03-29T10:29:36;14.60;95.30
5334;DHT22;2689;50.954;7.116;2024-03-29T10:32:04;14.80;95.20
5334;DHT22;2689;50.954;7.116;2024-03-29T10:34:31;14.90;94.70
5334;DHT22;2689;50.954;7.116;2024-03-29T10:37:02;14.90;94.50
5334;DHT22;2689;50.954;7.116;2024-03-29T10:39:31;14.80;94.40
5334;DHT22;2689;50.954;7.116;2024-03-29T10:42:00;14.80;94.40
5334;DHT22;2689;50.954;7.116;2024-03-29T10:44:28;14.90;94.40
5334;DHT22;2689;50.954;7.116;2024-03-29T10:46:56;14.90;94.40
5334;DHT22;2689;50.954;7.116;2024-03-29T10:49:23;14.90;94.20
5334;DHT22;2689;50.954;7.116;2024-03-29T10:51:51;14.90;94.40
5334;DHT22;2689;50.954;7.116;2024-03-29T10:54:22;15.00;94.40
5334;DHT22;2689;50.954;7.116;2024-03-29T10:56:59;15.00;94.00
5334;DHT22;2689;50.954;7.116;2024-03-29T10:59:31;15.00;94.00
5334;DHT22;2689;50.954;7.116;2024-03-29T11:02:10;14.90;94.10
5334;DHT22;2689;50.954;7.116;2024-03-29T11:04:40;14.90;94.10
5334;DHT22;2689;50.954;7.116;2024-03-29T11:07:15;14.70;94.60
5334;DHT22;2689;50.954;7.116;2024-03-29T11:09:43;14.50;94.70
5334;DHT22;2689;50.954;7.116;2024-03-29T11:12:13;14.40;94.80
5334;DHT22;2689;50.954;7.116;2024-03-29T11:14:45;14.30;95.20
5334;DHT22;2689;50.954;7.116;2024-03-29T11:17:13;14.30;95.20
5334;DHT22;2689;50.954;7.116;2024-03-29T11:19:40;14.40;95.20
5334;DHT22;2689;50.954;7.116;2024-03-29T11:22:08;14.40;94.90
5334;DHT22;2689;50.954;7.116;2024-03-29T11:24:38;14.50;95.00
5334;DHT22;2689;50.954;7.116;2024-03-29T11:27:09;14.60;94.90
5334;DHT22;2689;50.954;7.116;2024-03-29T11:29:41;14.70;94.60
5334;DHT22;2689;50.954;7.116;2024-03-29T11:32:11;14.70;94.60
5334;DHT22;2689;50.954;7.116;2024-03-29T11:34:43;14.70;94.50
5334;DHT22;2689;50.954;7.116;2024-03-29T11:37:11;14.70;94.30
5334;DHT22;2689;50.954;7.116;2024-03-29T11:39:38;14.60;94.60
5334;DHT22;2689;50.954;7.116;2024-03-29T11:42:06;14.60;94.70
5334;DHT22;2689;50.954;7.116;2024-03-29T11:44:33;14.50;94.50
5334;DHT22;2689;50.954;7.116;2024-03-29T11:47:04;14.50;95.00
5334;DHT22;2689;50.954;7.116;2024-03-29T11:49:33;14.40;94.80
5334;DHT22;2689;50.954;7.116;2024-03-29T11:52:04;14.60;95.10
5334;DHT22;2689;50.954;7.116;2024-03-29T11:54:37;14.60;94.70
5334;DHT22;2689;50.954;7.116;2024-03-29T11:57:04;14.60;95.20
5334;DHT22;2689;50.954;7.116;2024-03-29T11:59:31;14.60;95.50
5334;DHT22;2689;50.954;7.116;2024-03-29T12:01:58;14.50;96.10
5334;DHT22;2689;50.954;7.116;2024-03-29T12:04:27;14.60;95.20
5334;DHT22;2689;50.954;7.116;2024-03-29T12:06:54;14.40;95.40
5334;DHT22;2689;50.954;7.116;2024-03-29T12:09:21;14.40;95.50
5334;DHT22;2689;50.954;7.116;2024-03-29T12:11:48;14.30;95.50
5334;DHT22;2689;50.954;7.116;2024-03-29T12:14:16;14.30;95.70
5334;DHT22;2689;50.954;7.116;2024-03-29T12:16:43;14.20;96.00
5334;DHT22;2689;50.954;7.116;2024-03-29T12:19:21;14.30;96.60
5334;DHT22;2689;50.954;7.116;2024-03-29T12:21:50;14.20;97.00
5334;DHT22;2689;50.954;7.116;2024-03-29T12:24:17;14.10;97.80
5334;DHT22;2689;50.954;7.116;2024-03-29T12:26:45;14.10;98.10
5334;DHT22;2689;50.954;7.116;2024-03-29T12:29:11;14.10;98.50
5334;DHT22;2689;50.954;7.116;2024-03-29T12:31:40;14.10;98.00
5334;DHT22;2689;50.954;7.116;2024-03-29T12:34:08;14.10;97.80
5334;DHT22;2689;50.954;7.116;2024-03-29T12:36:35;14.20;97.80
5334;DHT22;2689;50.954;7.116;2024-03-29T12:39:04;14.30;97.60
5334;DHT22;2689;50.954;7.116;2024-03-29T12:41:34;14.20;97.60
5334;DHT22;2689;50.954;7.116;2024-03-29T12:44:01;14.20;97.70
5334;DHT22;2689;50.954;7.116;2024-03-29T12:46:27;14.20;98.40
5334;DHT22;2689;50.954;7.116;2024-03-29T12:48:58;14.10;99.50
5334;DHT22;2689;50.954;7.116;2024-03-29T12:51:27;13.90;99.90
5334;DHT22;2689;50.954;7.116;2024-03-29T12:53:54;13.90;99.90
5334;DHT22;2689;50.954;7.116;2024-03-29T12:56:28;14.00;99.90
5334;DHT22;2689;50.954;7.116;2024-03-29T12:58:54;14.10;99.90
5334;DHT22;2689;50.954;7.116;2024-03-29T13:01:21;14.30;99.90
5334;DHT22;2689;50.954;7.116;2024-03-29T13:03:48;14.40;99.50
5334;DHT22;2689;50.954;7.116;2024-03-29T13:06:15;14.30;99.30
5334;DHT22;2689;50.954;7.116;2024-03-29T13:08:43;14.30;98.70
5334;DHT22;2689;50.954;7.116;2024-03-29T13:11:10;14.40;98.50
5334;DHT22;2689;50.954;7.116;2024-03-29T13:13:39;14.40;98.40
5334;DHT22;2689;50.954;7.116;2024-03-29T13:16:06;14.40;98.00
5334;DHT22;2689;50.954;7.116;2024-03-29T13:18:33;14.40;98.00
5334;DHT22;2689;50.954;7.116;2024-03-29T13:21:01;14.30;97.30
5334;DHT22;2689;50.954;7.116;2024-03-29T13:23:28;14.30;97.90
5334;DHT22;2689;50.954;7.116;2024-03-29T13:25:58;14.30;97.60
5334;DHT22;2689;50.954;7.116;2024-03-29T13:28:29;14.30;98.10
5334;DHT22;2689;50.954;7.116;2024-03-29T13:30:58;14.40;97.80
5334;DHT22;2689;50.954;7.116;2024-03-29T13:33:25;14.40;98.00
5334;DHT22;2689;50.954;7.116;2024-03-29T13:35:53;14.30;98.10
5334;DHT22;2689;50.954;7.116;2024-03-29T13:38:23;14.30;99.50
5334;DHT22;2689;50.954;7.116;2024-03-29T13:40:52;13.90;99.90
5334;DHT22;2689;50.954;7.116;2024-03-29T13:43:19;13.60;99.90
5334;DHT22;2689;50.954;7.116;2024-03-29T13:45:47;13.50;99.90
5334;DHT22;2689;50.954;7.116;2024-03-29T13:48:16;13.40;99.90
5334;DHT22;2689;50.954;7.116;2024-03-29T13:50:43;13.40;99.90
5334;DHT22;2689;50.954;7.116;2024-03-29T13:53:10;13.50;99.90
5334;DHT22;2689;50.954;7.116;2024-03-29T13:55:38;13.60;99.90
5334;DHT22;2689;50.954;7.116;2024-03-29T13:58:06;13.70;99.90
5334;DHT22;2689;50.954;7.116;2024-03-29T14:00:33;13.90;99.90
5334;DHT22;2689;50.954;7.116;2024-03-29T14:03:00;14.10;99.90
5334;DHT22;2689;50.954;7.116;2024-03-29T14:05:30;14.40;99.90
5334;DHT22;2689;50.954;7.116;2024-03-29T14:07:57;14.60;99.90
5334;DHT22;2689;50.954;7.116;2024-03-29T14:10:24;15.00;99.90
5334;DHT22;2689;50.954;7.116;2024-03-29T14:12:51;15.20;99.90
5334;DHT22;2689;50.954;7.116;2024-03-29T14:15:20;15.60;99.90
5334;DHT22;2689;50.954;7.116;2024-03-29T14:17:46;15.80;98.70
5334;DHT22;2689;50.954;7.116;2024-03-29T14:20:13;16.00;96.80
5334;DHT22;2689;50.954;7.116;2024-03-29T14:22:43;16.00;95.70
5334;DHT22;2689;50.954;7.116;2024-03-29T14:25:25;16.00;95.00
5334;DHT22;2689;50.954;7.116;2024-03-29T14:27:53;16.00;94.60
5334;DHT22;2689;50.954;7.116;2024-03-29T14:30:23;15.90;94.20
5334;DHT22;2689;50.954;7.116;2024-03-29T14:32:51;15.90;94.40
5334;DHT22;2689;50.954;7.116;2024-03-29T14:35:19;16.20;93.70
5334;DHT22;2689;50.954;7.116;2024-03-29T14:37:47;16.30;93.80
5334;DHT22;2689;50.954;7.116;2024-03-29T14:40:18;16.10;92.50
5334;DHT22;2689;50.954;7.116;2024-03-29T14:42:46;16.00;93.00
5334;DHT22;2689;50.954;7.116;2024-03-29T14:45:13;16.00;93.20
5334;DHT22;2689;50.954;7.116;2024-03-29T14:47:40;15.90;92.60
5334;DHT22;2689;50.954;7.116;2024-03-29T14:50:09;15.80;92.70
5334;DHT22;2689;50.954;7.116;2024-03-29T14:52:36;15.80;93.00
5334;DHT22;2689;50.954;7.116;2024-03-29T14:55:08;16.10;93.10
5334;DHT22;2689;50.954;7.116;2024-03-29T14:57:34;16.10;91.70
5334;DHT22;2689;50.954;7.116;2024-03-29T15:00:02;15.90;91.90
5334;DHT22;2689;50.954;7.116;2024-03-29T15:02:30;15.90;91.80
5334;DHT22;2689;50.954;7.116;2024-03-29T15:04:58;15.90;91.10
5334;DHT22;2689;50.954;7.116;2024-03-29T15:07:25;15.90;91.60
5334;DHT22;2689;50.954;7.116;2024-03-29T15:09:53;16.10;91.40
5334;DHT22;2689;50.954;7.116;2024-03-29T15:12:22;16.30;91.20
5334;DHT22;2689;50.954;7.116;2024-03-29T15:14:49;16.50;90.60
5334;DHT22;2689;50.954;7.116;2024-03-29T15:17:16;16.70;90.00
5334;DHT22;2689;50.954;7.116;2024-03-29T15:19:45;16.80;89.20
5334;DHT22;2689;50.954;7.116;2024-03-29T15:22:16;17.00;89.00
5334;DHT22;2689;50.954;7.116;2024-03-29T15:24:43;17.00;88.70
5334;DHT22;2689;50.954;7.116;2024-03-29T15:27:10;16.90;90.50
5334;DHT22;2689;50.954;7.116;2024-03-29T15:29:57;16.80;90.40
5334;DHT22;2689;50.954;7.116;2024-03-29T15:32:23;16.60;88.00
5334;DHT22;2689;50.954;7.116;2024-03-29T15:34:56;16.20;88.10
5334;DHT22;2689;50.954;7.116;2024-03-29T15:37:22;16.10;87.80
5334;DHT22;2689;50.954;7.116;2024-03-29T15:39:50;16.10;87.60
5334;DHT22;2689;50.954;7.116;2024-03-29T15:42:18;15.90;88.10
5334;DHT22;2689;50.954;7.116;2024-03-29T15:44:45;15.70;88.80
5334;DHT22;2689;50.954;7.116;2024-03-29T15:47:14;15.70;88.50
5334;DHT22;2689;50.954;7.116;2024-03-29T15:49:41;15.50;89.20
5334;DHT22;2689;50.954;7.116;2024-03-29T15:52:07;15.30;90.20
5334;DHT22;2689;50.954;7.116;2024-03-29T15:54:35;15.20;90.70
5334;DHT22;2689;50.954;7.116;2024-03-29T15:57:03;15.20;91.80
5334;DHT22;2689;50.954;7.116;2024-03-29T15:59:30;15.10;92.10
5334;DHT22;2689;50.954;7.116;2024-03-29T16:01:57;15.10;92.20
5334;DHT22;2689;50.954;7.116;2024-03-29T16:04:28;15.00;92.10
5334;DHT22;2689;50.954;7.116;2024-03-29T16:06:54;14.90;91.60
5334;DHT22;2689;50.954;7.116;2024-03-29T16:09:21;14.90;91.30
5334;DHT22;2689;50.954;7.116;2024-03-29T16:11:48;14.90;91.40